Beehive, Montana
Current Conditions -  °F | °C
As of 2:53 AM on Sunday 25 Jan 2015 (Local Time) from KLVM Reporting Station
Overcast Overcast  
Wind Chill: 36°   Ceiling: 6000
Heat Index: 44°   Visibility: 10mi
Dew Point: 29°   Wind: 21mph
Humidity: 55%   Direction: 250°WSW
Pressure: 30.15"   Gusts: 38mph
Location:  45.4577°N, 109.823°W
Report Text: KLVM 250953Z AUTO 25018G33KT 10SM OVC060 07/M02 A3015 RMK AO2 PK WND 22039/0936 SLP209 T00671017
Loading
Personal Weather Stations






























Interactive Weather Map New forecast layout! Learn more

10-Day Weather Forecast

Advertisements
Track Severe Weather on mobile